Time;durP1;ratioP1;P1;durP2;ratioP2;P2;SDS_P1;SDS_P2;PMS_P1;PMS_P2;Temp;Humidity;BMP_temperature;BMP_pressure;BME280_temperature;BME280_humidity;BME280_pressure;Samples;Min_cycle;Max_cycle;Signal;HPM_P1;HPM_P2
2022/02/04 00:24:12;;;;;;;;;;;7.20;99.90;;;;;;4174914;28;19936;-53
2022/02/04 00:28:45;;;;;;;;;;;7.40;99.90;;;;;;4179572;28;19968;-53
2022/02/04 00:30:46;;;;;;;;;;;7.40;99.90;;;;;;4177384;28;20023;-52
2022/02/04 00:32:50;;;;;;;;;;;7.30;99.90;;;;;;4178980;28;19976;-53
2022/02/04 00:35:03;;;;;;;;;;;7.40;99.90;;;;;;4178181;28;20027;-53
2022/02/04 00:37:28;;;;;;;;;;;7.30;99.90;;;;;;4177769;28;19929;-51
2022/02/04 00:39:38;;;;;;;;;;;6.80;99.90;;;;;;4178071;28;20681;-52
2022/02/04 00:41:43;;;;;;;;;;;6.40;99.90;;;;;;4169506;28;20027;-52
2022/02/04 00:43:48;;;;;;;;;;;6.30;99.90;;;;;;4168134;28;19929;-52
2022/02/04 00:46:39;;;;;;;;;;;6.20;99.90;;;;;;4177245;28;19937;-51
2022/02/04 00:50:55;;;;;;;;;;;6.30;99.90;;;;;;4166348;28;19964;-51
2022/02/04 00:57:33;;;;;;;;;;;6.40;99.90;;;;;;4178487;28;19968;-51
2022/02/04 01:13:33;;;;;;;;;;;6.70;99.90;;;;;;4169417;28;20625;-52
2022/02/04 01:27:18;;;;;;;;;;;7.20;99.90;;;;;;4178724;28;19928;-51
2022/02/04 01:29:21;;;;;;;;;;;7.20;99.90;;;;;;4176705;28;20326;-53
2022/02/04 01:31:23;;;;;;;;;;;7.10;99.90;;;;;;4177075;28;19994;-52
2022/02/04 01:33:26;;;;;;;;;;;7.10;99.90;;;;;;4176442;28;19975;-52
2022/02/04 01:35:28;;;;;;;;;;;7.10;99.90;;;;;;4176883;28;20035;-51
2022/02/04 01:37:30;;;;;;;;;;;7.10;99.90;;;;;;4164747;28;20023;-51
2022/02/04 01:39:32;;;;;;;;;;;7.10;99.90;;;;;;4177411;28;20428;-53
2022/02/04 01:41:34;;;;;;;;;;;7.10;99.90;;;;;;4177303;28;20004;-52
2022/02/04 01:43:36;;;;;;;;;;;7.20;99.90;;;;;;4178177;28;19932;-52
2022/02/04 01:45:38;;;;;;;;;;;7.20;99.90;;;;;;4177430;28;19925;-52
2022/02/04 01:47:41;;;;;;;;;;;7.20;99.90;;;;;;4176268;28;19925;-52
2022/02/04 01:49:43;;;;;;;;;;;7.20;99.90;;;;;;4162582;28;19936;-53
2022/02/04 01:51:46;;;;;;;;;;;7.30;99.90;;;;;;4174367;28;20011;-53
2022/02/04 01:53:48;;;;;;;;;;;7.30;99.90;;;;;;4176816;28;20342;-52
2022/02/04 01:55:49;;;;;;;;;;;7.30;99.90;;;;;;4175913;28;20419;-53
2022/02/04 01:57:51;;;;;;;;;;;7.30;99.90;;;;;;4174979;28;19955;-52
2022/02/04 01:59:53;;;;;;;;;;;7.30;99.90;;;;;;4176887;28;19925;-52
2022/02/04 02:01:55;;;;;;;;;;;7.30;99.90;;;;;;4178547;28;19953;-52
2022/02/04 02:04:00;;;;;;;;;;;7.30;99.90;;;;;;4175247;28;19951;-52
2022/02/04 02:06:08;;;;;;;;;;;7.30;99.90;;;;;;4177910;28;19952;-52
2022/02/04 02:08:11;;;;;;;;;;;7.20;99.90;;;;;;4177459;28;19935;-52
2022/02/04 02:10:16;;;;;;;;;;;7.20;99.90;;;;;;4175668;28;19982;-53
2022/02/04 02:12:20;;;;;;;;;;;7.20;99.90;;;;;;4175198;28;20027;-53
2022/02/04 02:14:25;;;;;;;;;;;7.20;99.90;;;;;;4168209;28;19994;-53
2022/02/04 02:35:33;;;;;;;;;;;7.20;99.90;;;;;;4176160;28;19932;-53
2022/02/04 02:42:26;;;;;;;;;;;7.00;99.90;;;;;;4176045;28;19933;-52
2022/02/04 02:44:52;;;;;;;;;;;7.10;99.90;;;;;;4175825;28;19925;-53
2022/02/04 02:47:12;;;;;;;;;;;7.00;99.90;;;;;;4176167;28;20288;-52
2022/02/04 02:54:16;;;;;;;;;;;7.00;99.90;;;;;;4177020;28;19925;-53
2022/02/04 02:58:25;;;;;;;;;;;7.10;99.90;;;;;;4173479;28;20363;-53
2022/02/04 03:02:29;;;;;;;;;;;7.00;99.90;;;;;;4174682;28;19931;-53
2022/02/04 03:04:31;;;;;;;;;;;7.10;99.90;;;;;;4176088;28;19963;-52
2022/02/04 03:06:33;;;;;;;;;;;7.10;99.90;;;;;;4177747;28;19925;-53
2022/02/04 03:08:35;;;;;;;;;;;7.00;99.90;;;;;;4171664;28;19931;-52
2022/02/04 03:10:37;;;;;;;;;;;7.00;99.90;;;;;;4177470;28;20380;-52
2022/02/04 03:12:42;;;;;;;;;;;7.00;99.90;;;;;;4167403;28;19935;-52
2022/02/04 03:14:44;;;;;;;;;;;7.00;99.90;;;;;;4176051;28;20023;-52
2022/02/04 03:16:46;;;;;;;;;;;7.00;99.90;;;;;;4174931;28;19999;-52
2022/02/04 03:18:51;;;;;;;;;;;6.90;99.90;;;;;;4175929;28;19924;-51
2022/02/04 03:20:57;;;;;;;;;;;6.90;99.90;;;;;;4171771;28;20043;-53
2022/02/04 03:22:59;;;;;;;;;;;6.90;99.90;;;;;;4164301;28;19974;-52
2022/02/04 03:25:05;;;;;;;;;;;6.90;99.90;;;;;;4177000;28;19968;-52
2022/02/04 03:27:11;;;;;;;;;;;6.90;99.90;;;;;;4175275;28;19931;-52
2022/02/04 03:29:16;;;;;;;;;;;6.90;99.90;;;;;;4175633;28;19983;-52
2022/02/04 03:31:18;;;;;;;;;;;6.90;99.90;;;;;;4175959;28;19929;-52
2022/02/04 03:33:24;;;;;;;;;;;6.90;99.90;;;;;;4175691;28;19925;-53
2022/02/04 03:35:26;;;;;;;;;;;6.90;99.90;;;;;;4157735;28;19961;-52
2022/02/04 03:37:28;;;;;;;;;;;6.90;99.90;;;;;;4175667;28;20027;-52
2022/02/04 03:39:32;;;;;;;;;;;6.90;99.90;;;;;;4175356;28;19928;-53
2022/02/04 03:41:34;;;;;;;;;;;6.90;99.90;;;;;;4175142;28;19980;-52
2022/02/04 03:43:36;;;;;;;;;;;7.00;99.90;;;;;;4174284;28;20035;-53
2022/02/04 03:45:38;;;;;;;;;;;7.00;99.90;;;;;;4157459;28;19967;-54
2022/02/04 03:47:40;;;;;;;;;;;7.00;99.90;;;;;;4176918;28;19929;-53
2022/02/04 03:49:42;;;;;;;;;;;7.00;99.90;;;;;;4175303;28;20470;-52
2022/02/04 03:51:44;;;;;;;;;;;7.00;99.90;;;;;;4172694;28;19964;-53
2022/02/04 03:53:46;;;;;;;;;;;7.00;99.90;;;;;;4172889;28;20019;-53
2022/02/04 03:55:48;;;;;;;;;;;6.90;99.90;;;;;;4170946;28;20015;-53
2022/02/04 03:57:49;;;;;;;;;;;7.00;99.90;;;;;;4174086;28;19924;-52
2022/02/04 03:59:52;;;;;;;;;;;7.00;99.90;;;;;;4176698;28;19936;-52
2022/02/04 04:01:54;;;;;;;;;;;7.00;99.90;;;;;;4168505;28;20004;-53
2022/02/04 04:03:57;;;;;;;;;;;6.90;99.90;;;;;;4174766;28;19960;-52
2022/02/04 04:05:59;;;;;;;;;;;7.00;99.90;;;;;;4176564;28;19924;-52
2022/02/04 04:08:01;;;;;;;;;;;6.90;99.90;;;;;;4173520;28;19968;-53
2022/02/04 04:10:09;;;;;;;;;;;7.00;99.90;;;;;;4166683;28;19968;-51
2022/02/04 04:12:11;;;;;;;;;;;7.00;99.90;;;;;;4170110;28;19928;-52
2022/02/04 04:14:14;;;;;;;;;;;7.00;99.90;;;;;;4175500;28;20730;-52
2022/02/04 04:16:18;;;;;;;;;;;7.10;99.90;;;;;;4174032;28;20015;-52
2022/02/04 04:18:21;;;;;;;;;;;7.10;99.90;;;;;;4175127;28;20039;-52
2022/02/04 04:20:24;;;;;;;;;;;7.00;99.90;;;;;;4174728;28;19929;-52
2022/02/04 04:22:25;;;;;;;;;;;7.10;99.90;;;;;;4173648;28;19963;-52
2022/02/04 04:24:27;;;;;;;;;;;7.00;99.90;;;;;;4169659;28;19932;-53
2022/02/04 04:26:29;;;;;;;;;;;7.00;99.90;;;;;;4175606;28;20031;-53
2022/02/04 04:28:31;;;;;;;;;;;7.00;99.90;;;;;;4173190;28;19929;-50
2022/02/04 04:30:33;;;;;;;;;;;7.00;99.90;;;;;;4176831;28;20043;-50
2022/02/04 04:32:35;;;;;;;;;;;7.00;99.90;;;;;;4174806;28;19956;-53
2022/02/04 04:34:38;;;;;;;;;;;7.00;99.90;;;;;;4176150;28;20324;-52
2022/02/04 04:36:41;;;;;;;;;;;7.00;99.90;;;;;;4163145;28;19983;-53
2022/02/04 04:38:49;;;;;;;;;;;6.90;99.90;;;;;;4172866;28;19940;-51
2022/02/04 05:28:32;;;;;;;;;;;6.60;99.90;;;;;;4177362;28;19925;-53
2022/02/04 05:30:34;;;;;;;;;;;6.70;99.90;;;;;;4181154;28;20431;-52
2022/02/04 05:32:36;;;;;;;;;;;6.70;99.90;;;;;;4177655;28;19932;-52
2022/02/04 05:34:39;;;;;;;;;;;6.70;99.90;;;;;;4175047;28;20388;-52
2022/02/04 05:36:44;;;;;;;;;;;6.70;99.90;;;;;;4177285;28;19928;-52
2022/02/04 05:38:46;;;;;;;;;;;6.80;99.90;;;;;;4179039;28;20015;-53
2022/02/04 05:40:50;;;;;;;;;;;6.80;99.90;;;;;;4173516;28;19968;-52
2022/02/04 05:42:59;;;;;;;;;;;6.70;99.90;;;;;;4177408;28;19964;-52
2022/02/04 05:45:05;;;;;;;;;;;6.70;99.90;;;;;;4173311;28;19972;-52
2022/02/04 05:47:17;;;;;;;;;;;6.70;99.90;;;;;;4176408;28;20404;-53
2022/02/04 05:49:21;;;;;;;;;;;6.70;99.90;;;;;;4178015;28;19936;-52
2022/02/04 05:53:36;;;;;;;;;;;6.60;99.90;;;;;;4176290;28;19935;-53
2022/02/04 05:58:12;;;;;;;;;;;6.60;99.90;;;;;;4178532;28;19931;-51
2022/02/04 06:02:50;;;;;;;;;;;6.60;99.90;;;;;;4176650;28;20475;-53
2022/02/04 06:05:03;;;;;;;;;;;6.60;99.90;;;;;;4175126;28;19971;-52
2022/02/04 06:07:18;;;;;;;;;;;6.60;99.90;;;;;;4169208;28;20396;-51
2022/02/04 06:23:13;;;;;;;;;;;6.60;99.90;;;;;;4176364;28;20409;-53
2022/02/04 06:25:15;;;;;;;;;;;6.60;99.90;;;;;;4182499;28;19967;-52
2022/02/04 06:27:18;;;;;;;;;;;6.70;99.90;;;;;;4175192;28;20427;-52
2022/02/04 06:29:20;;;;;;;;;;;6.70;99.90;;;;;;4176357;28;19929;-52
2022/02/04 06:31:22;;;;;;;;;;;6.70;99.90;;;;;;4178606;28;20309;-52
2022/02/04 06:33:26;;;;;;;;;;;6.70;99.90;;;;;;4171228;28;21102;-53
2022/02/04 06:35:30;;;;;;;;;;;6.70;99.90;;;;;;4165694;28;20015;-52
2022/02/04 06:37:32;;;;;;;;;;;6.70;99.90;;;;;;4177324;28;19952;-52
2022/02/04 06:39:34;;;;;;;;;;;6.70;99.90;;;;;;4176357;28;20407;-52
2022/02/04 06:41:37;;;;;;;;;;;6.70;99.90;;;;;;4176355;28;19939;-52
2022/02/04 06:43:39;;;;;;;;;;;6.80;99.90;;;;;;4163159;28;20384;-52
2022/02/04 06:45:41;;;;;;;;;;;6.70;99.90;;;;;;4173424;28;19939;-51
2022/02/04 06:47:43;;;;;;;;;;;6.70;99.90;;;;;;4176183;28;19957;-53
2022/02/04 06:49:45;;;;;;;;;;;6.70;99.90;;;;;;4173581;28;20020;-51
2022/02/04 06:51:47;;;;;;;;;;;6.80;99.90;;;;;;4172194;28;19936;-52
2022/02/04 06:53:49;;;;;;;;;;;6.80;99.90;;;;;;4163269;28;19925;-52
2022/02/04 06:55:51;;;;;;;;;;;6.80;99.90;;;;;;4178386;28;20035;-52
2022/02/04 06:57:54;;;;;;;;;;;6.80;99.90;;;;;;4177454;28;19925;-53
2022/02/04 06:59:58;;;;;;;;;;;6.80;99.90;;;;;;4177126;28;19932;-52
2022/02/04 07:02:00;;;;;;;;;;;6.80;99.90;;;;;;4176837;28;20048;-52
2022/02/04 07:04:04;;;;;;;;;;;6.70;99.90;;;;;;4175513;28;20015;-52
2022/02/04 07:06:06;;;;;;;;;;;6.80;99.90;;;;;;4176912;28;19928;-51
2022/02/04 07:08:20;;;;;;;;;;;6.70;99.90;;;;;;4176329;28;19924;-52
2022/02/04 07:10:33;;;;;;;;;;;6.80;99.90;;;;;;4175756;28;20385;-52
2022/02/04 07:12:36;;;;;;;;;;;6.80;99.90;;;;;;4176280;28;20031;-51
2022/02/04 07:17:12;;;;;;;;;;;6.80;99.90;;;;;;4174167;28;19947;-52
2022/02/04 07:21:34;;;;;;;;;;;6.80;99.90;;;;;;4162052;28;19929;-52
2022/02/04 07:23:37;;;;;;;;;;;6.80;99.90;;;;;;4176165;28;19929;-51
2022/02/04 07:25:39;;;;;;;;;;;6.80;99.90;;;;;;4174238;28;19960;-52
2022/02/04 07:27:41;;;;;;;;;;;6.80;99.90;;;;;;4174605;28;19976;-51
2022/02/04 07:30:03;;;;;;;;;;;6.80;99.90;;;;;;4175582;28;19935;-52
2022/02/04 07:32:15;;;;;;;;;;;6.80;99.90;;;;;;4174080;28;20016;-51
2022/02/04 07:34:36;;;;;;;;;;;6.80;99.90;;;;;;4165562;28;20292;-52
2022/02/04 07:41:19;;;;;;;;;;;6.90;99.90;;;;;;4173098;28;19948;-51
2022/02/04 07:43:22;;;;;;;;;;;6.90;99.90;;;;;;4171372;28;19939;-52
2022/02/04 07:45:25;;;;;;;;;;;6.90;99.90;;;;;;4176888;28;19929;-54
2022/02/04 07:47:31;;;;;;;;;;;6.90;99.90;;;;;;4173988;28;19925;-52
2022/02/04 07:49:33;;;;;;;;;;;6.90;99.90;;;;;;4175369;28;20011;-51
2022/02/04 07:51:35;;;;;;;;;;;6.90;99.90;;;;;;4167350;28;19956;-50
2022/02/04 07:53:37;;;;;;;;;;;6.90;99.90;;;;;;4175186;28;19963;-52
2022/02/04 07:55:39;;;;;;;;;;;7.00;99.90;;;;;;4176845;28;19959;-53
2022/02/04 07:57:42;;;;;;;;;;;6.90;99.90;;;;;;4175382;28;20472;-51
2022/02/04 07:59:46;;;;;;;;;;;6.90;99.90;;;;;;4174077;28;20284;-51
2022/02/04 08:01:48;;;;;;;;;;;6.90;99.90;;;;;;4166722;28;20027;-52
2022/02/04 08:03:56;;;;;;;;;;;7.00;99.90;;;;;;4175490;28;19928;-51
2022/02/04 08:06:05;;;;;;;;;;;7.00;99.90;;;;;;4173714;28;20502;-52
2022/02/04 08:08:31;;;;;;;;;;;7.00;99.90;;;;;;4169631;28;19924;-51
2022/02/04 08:10:47;;;;;;;;;;;7.00;99.90;;;;;;4162200;28;19932;-51
2022/02/04 08:20:26;;;;;;;;;;;7.10;99.90;;;;;;4125544;28;19941;-51
2022/02/04 08:27:08;;;;;;;;;;;7.20;99.90;;;;;;4111096;28;19966;-52
2022/02/04 08:29:36;;;;;;;;;;;7.20;99.90;;;;;;4125627;28;20020;-51
2022/02/04 08:56:04;;;;;;;;;;;7.50;99.90;;;;;;4160658;28;20324;-52
2022/02/04 09:04:43;;;;;;;;;;;7.50;99.90;;;;;;4151020;28;20332;-52
2022/02/04 09:06:51;;;;;;;;;;;7.50;99.90;;;;;;4144981;28;19968;-53
2022/02/04 09:08:59;;;;;;;;;;;7.50;99.90;;;;;;4158297;28;19925;-52
2022/02/04 09:11:05;;;;;;;;;;;7.50;99.90;;;;;;4168958;28;19929;-52
2022/02/04 09:23:59;;;;;;;;;;;7.60;99.90;;;;;;4175764;28;20031;-53
2022/02/04 09:26:06;;;;;;;;;;;7.60;99.90;;;;;;4177573;28;19978;-52
2022/02/04 09:28:08;;;;;;;;;;;7.60;99.90;;;;;;4173298;28;19982;-53
2022/02/04 09:30:11;;;;;;;;;;;7.60;99.90;;;;;;4170205;28;19932;-52
2022/02/04 09:32:13;;;;;;;;;;;7.50;99.90;;;;;;4166754;28;19968;-53
2022/02/04 09:34:15;;;;;;;;;;;7.60;99.90;;;;;;4178874;28;20300;-52
2022/02/04 09:36:16;;;;;;;;;;;7.50;99.90;;;;;;4172504;28;19929;-52
2022/02/04 09:38:18;;;;;;;;;;;7.60;99.90;;;;;;4175161;28;19956;-53
2022/02/04 09:40:24;;;;;;;;;;;7.60;99.90;;;;;;4178129;28;19925;-52
2022/02/04 09:42:27;;;;;;;;;;;7.60;99.90;;;;;;4175792;28;20468;-52
2022/02/04 09:44:29;;;;;;;;;;;7.60;99.90;;;;;;4175752;28;19935;-52
2022/02/04 09:46:35;;;;;;;;;;;7.60;99.90;;;;;;4178814;28;19932;-52
2022/02/04 09:48:37;;;;;;;;;;;7.60;99.90;;;;;;4176834;28;19929;-52
2022/02/04 09:50:44;;;;;;;;;;;7.60;99.90;;;;;;4176997;28;20296;-51
2022/02/04 10:09:42;;;;;;;;;;;7.80;99.90;;;;;;4176626;28;20423;-52
2022/02/04 10:14:23;;;;;;;;;;;7.80;99.90;;;;;;4176072;28;19951;-52
2022/02/04 10:18:59;;;;;;;;;;;7.80;99.90;;;;;;4140308;28;20247;-52
2022/02/04 10:21:03;;;;;;;;;;;7.80;99.90;;;;;;4143683;28;19980;-53
2022/02/04 10:23:05;;;;;;;;;;;7.80;99.90;;;;;;4147040;28;19983;-52
2022/02/04 10:25:08;;;;;;;;;;;7.90;99.90;;;;;;4149356;28;20064;-52
2022/02/04 10:27:22;;;;;;;;;;;7.90;99.90;;;;;;4127649;28;20113;-53
2022/02/04 10:29:24;;;;;;;;;;;7.90;99.90;;;;;;4140346;28;19985;-52
2022/02/04 10:31:30;;;;;;;;;;;7.90;99.90;;;;;;4142380;28;20318;-53
2022/02/04 10:33:32;;;;;;;;;;;7.90;99.90;;;;;;4159211;28;19960;-52
2022/02/04 10:35:36;;;;;;;;;;;7.90;99.90;;;;;;4139646;28;19932;-52
2022/02/04 10:37:55;;;;;;;;;;;7.90;99.90;;;;;;4125863;28;19973;-52
2022/02/04 10:44:27;;;;;;;;;;;7.90;99.90;;;;;;4139270;28;19957;-52
2022/02/04 11:03:56;;;;;;;;;;;8.20;99.90;;;;;;4176412;28;20333;-52
2022/02/04 11:06:15;;;;;;;;;;;8.20;99.90;;;;;;4174123;28;20019;-52
2022/02/04 11:11:14;;;;;;;;;;;8.20;99.90;;;;;;4173126;28;20040;-52
2022/02/04 11:32:16;;;;;;;;;;;8.50;99.90;;;;;;4169926;28;20388;-53
2022/02/04 11:34:23;;;;;;;;;;;8.60;99.90;;;;;;4168569;28;19929;-53
2022/02/04 11:43:47;;;;;;;;;;;8.70;99.90;;;;;;4173379;28;19947;-52
2022/02/04 11:51:15;;;;;;;;;;;8.70;99.90;;;;;;4176470;28;19937;-53
2022/02/04 11:53:44;;;;;;;;;;;8.70;99.90;;;;;;4177547;28;19925;-52
2022/02/04 11:55:57;;;;;;;;;;;8.80;99.90;;;;;;4168063;28;19933;-52
2022/02/04 11:58:03;;;;;;;;;;;8.80;99.90;;;;;;4176131;28;20031;-53
2022/02/04 12:00:18;;;;;;;;;;;8.80;99.90;;;;;;4174256;28;20353;-52
2022/02/04 12:02:26;;;;;;;;;;;8.80;99.90;;;;;;4174100;28;20350;-52
2022/02/04 12:04:29;;;;;;;;;;;8.80;99.90;;;;;;4170595;28;19963;-52
2022/02/04 12:06:33;;;;;;;;;;;8.80;99.90;;;;;;4167821;28;20588;-53
2022/02/04 12:08:35;;;;;;;;;;;8.80;99.90;;;;;;4175142;28;19931;-52
2022/02/04 12:10:40;;;;;;;;;;;8.80;99.90;;;;;;4177246;28;20044;-53
2022/02/04 12:13:08;;;;;;;;;;;8.80;99.90;;;;;;4176214;28;19952;-53
2022/02/04 12:15:30;;;;;;;;;;;8.80;99.90;;;;;;4175984;28;19929;-52
2022/02/04 12:17:38;;;;;;;;;;;8.70;99.90;;;;;;4177724;28;19987;-52
2022/02/04 12:19:43;;;;;;;;;;;8.70;99.90;;;;;;4179422;28;20324;-53
2022/02/04 12:21:46;;;;;;;;;;;8.60;99.90;;;;;;4178474;28;20047;-53
2022/02/04 12:23:49;;;;;;;;;;;8.60;99.90;;;;;;4178254;28;19929;-52
2022/02/04 12:25:51;;;;;;;;;;;8.60;99.90;;;;;;4167213;28;19924;-51
2022/02/04 12:27:53;;;;;;;;;;;8.70;99.90;;;;;;4177014;28;19959;-52
2022/02/04 12:29:56;;;;;;;;;;;8.70;99.90;;;;;;4178227;28;20006;-52
2022/02/04 12:31:58;;;;;;;;;;;8.70;99.90;;;;;;4178780;28;20290;-52
2022/02/04 12:34:00;;;;;;;;;;;8.70;99.90;;;;;;4175357;28;20023;-52
2022/02/04 12:36:02;;;;;;;;;;;8.70;99.90;;;;;;4181433;28;20019;-51
2022/02/04 12:38:04;;;;;;;;;;;8.70;99.90;;;;;;4179153;28;19967;-52
2022/02/04 12:40:08;;;;;;;;;;;8.80;99.90;;;;;;4174454;28;19967;-52
2022/02/04 12:42:13;;;;;;;;;;;8.80;99.90;;;;;;4178834;28;20292;-52
2022/02/04 12:44:16;;;;;;;;;;;8.80;99.90;;;;;;4179673;28;19975;-52
2022/02/04 12:46:19;;;;;;;;;;;8.80;99.90;;;;;;4176631;28;19931;-52
2022/02/04 12:48:21;;;;;;;;;;;8.80;99.90;;;;;;4179606;28;20031;-52
2022/02/04 12:50:26;;;;;;;;;;;8.80;99.90;;;;;;4167949;28;20476;-52
2022/02/04 12:52:42;;;;;;;;;;;8.70;99.90;;;;;;4177786;28;19931;-52
2022/02/04 13:11:40;;;;;;;;;;;8.40;99.90;;;;;;4106907;28;19930;-51
2022/02/04 13:13:50;;;;;;;;;;;8.40;99.90;;;;;;4111654;28;20016;-52
2022/02/04 13:15:54;;;;;;;;;;;8.40;99.90;;;;;;4111745;28;19926;-50
2022/02/04 13:17:57;;;;;;;;;;;8.40;99.90;;;;;;4108254;28;20021;-50
2022/02/04 13:20:00;;;;;;;;;;;8.40;99.90;;;;;;4110243;28;20279;-52
2022/02/04 13:22:02;;;;;;;;;;;8.50;99.90;;;;;;4122787;28;19925;-51
2022/02/04 13:24:05;;;;;;;;;;;8.60;99.90;;;;;;4110541;28;19973;-52
2022/02/04 13:26:08;;;;;;;;;;;8.60;99.90;;;;;;4110175;28;19930;-52
2022/02/04 13:28:15;;;;;;;;;;;8.60;99.90;;;;;;4120496;28;20495;-51
2022/02/04 13:30:21;;;;;;;;;;;8.60;99.90;;;;;;4103752;28;19937;-52
2022/02/04 13:32:24;;;;;;;;;;;8.70;99.90;;;;;;4102629;28;20241;-52
2022/02/04 13:34:28;;;;;;;;;;;8.70;99.90;;;;;;4111844;28;19981;-52
2022/02/04 13:36:37;;;;;;;;;;;8.70;99.90;;;;;;4105057;28;20029;-51
2022/02/04 13:40:55;;;;;;;;;;;8.60;99.90;;;;;;4160875;28;20020;-52
2022/02/04 13:43:04;;;;;;;;;;;8.70;99.90;;;;;;4159548;28;19935;-51
2022/02/04 13:45:24;;;;;;;;;;;8.80;99.90;;;;;;4159391;28;20051;-52
2022/02/04 13:50:00;;;;;;;;;;;8.80;99.90;;;;;;4176736;28;20019;-54
2022/02/04 13:52:10;;;;;;;;;;;8.90;99.90;;;;;;4159365;28;19971;-53
2022/02/04 13:54:23;;;;;;;;;;;8.80;99.90;;;;;;4160584;28;19971;-54
2022/02/04 13:57:06;;;;;;;;;;;9.00;99.90;;;;;;4160688;28;20020;-54
2022/02/04 13:59:10;;;;;;;;;;;9.10;99.90;;;;;;4152010;28;19979;-53
2022/02/04 14:03:17;;;;;;;;;;;9.10;99.90;;;;;;4160177;28;19929;-54
2022/02/04 14:05:33;;;;;;;;;;;9.10;99.90;;;;;;4162169;28;20334;-54
2022/02/04 14:07:41;;;;;;;;;;;9.20;99.90;;;;;;4152484;28;20588;-53
2022/02/04 14:09:51;;;;;;;;;;;9.20;99.90;;;;;;4153363;28;20043;-54
2022/02/04 14:11:53;;;;;;;;;;;9.10;99.90;;;;;;4161960;28;19948;-53
2022/02/04 14:13:55;;;;;;;;;;;9.20;99.90;;;;;;4160325;28;19975;-53
2022/02/04 14:16:06;;;;;;;;;;;9.20;99.90;;;;;;4157320;28;20347;-53
2022/02/04 14:18:10;;;;;;;;;;;9.20;99.90;;;;;;4151286;28;19929;-54
2022/02/04 14:20:15;;;;;;;;;;;9.20;99.90;;;;;;4160811;28;20417;-54
2022/02/04 14:22:18;;;;;;;;;;;9.20;99.90;;;;;;4157298;28;20042;-54
2022/02/04 14:24:25;;;;;;;;;;;9.20;99.90;;;;;;4150545;28;19925;-54
2022/02/04 14:26:31;;;;;;;;;;;9.20;99.90;;;;;;4160860;28;19924;-53
2022/02/04 14:28:54;;;;;;;;;;;9.10;99.90;;;;;;4156450;28;19933;-53
2022/02/04 14:31:00;;;;;;;;;;;9.10;99.90;;;;;;4153319;28;19936;-54
2022/02/04 14:35:54;;;;;;;;;;;9.10;99.90;;;;;;4140029;28;20417;-54
2022/02/04 14:54:44;;;;;;;;;;;9.10;99.90;;;;;;4176229;28;19935;-54
2022/02/04 15:01:36;;;;;;;;;;;9.10;99.90;;;;;;4162486;28;19975;-53
2022/02/04 15:03:41;;;;;;;;;;;9.10;99.90;;;;;;4175132;28;19929;-54
2022/02/04 15:05:59;;;;;;;;;;;9.10;99.90;;;;;;4174106;28;20625;-53
2022/02/04 15:08:13;;;;;;;;;;;9.10;99.90;;;;;;4164626;28;19925;-54
2022/02/04 15:10:30;;;;;;;;;;;9.20;99.90;;;;;;4162672;28;19933;-54
2022/02/04 15:12:32;;;;;;;;;;;9.20;99.90;;;;;;4175184;28;19932;-54
2022/02/04 15:14:34;;;;;;;;;;;9.20;99.90;;;;;;4175798;28;19936;-53
2022/02/04 15:16:36;;;;;;;;;;;9.20;99.90;;;;;;4161312;28;19925;-53
2022/02/04 15:18:39;;;;;;;;;;;9.20;99.90;;;;;;4172284;28;20452;-54
2022/02/04 15:20:42;;;;;;;;;;;9.20;99.90;;;;;;4175558;28;20451;-53
2022/02/04 15:22:43;;;;;;;;;;;9.20;99.90;;;;;;4177040;28;19928;-53
2022/02/04 15:24:53;;;;;;;;;;;9.20;99.90;;;;;;4175432;28;19925;-54
2022/02/04 15:26:54;;;;;;;;;;;9.20;99.90;;;;;;4176164;28;20467;-54
2022/02/04 15:30:59;;;;;;;;;;;9.30;99.90;;;;;;4173669;28;20011;-54
2022/02/04 15:33:01;;;;;;;;;;;9.30;99.90;;;;;;4175735;28;19929;-54
2022/02/04 15:35:05;;;;;;;;;;;9.20;99.90;;;;;;4177170;28;20339;-53
2022/02/04 15:37:07;;;;;;;;;;;9.20;99.90;;;;;;4174012;28;20452;-55
2022/02/04 15:39:11;;;;;;;;;;;9.20;99.90;;;;;;4177152;28;19956;-55
2022/02/04 15:41:18;;;;;;;;;;;9.20;99.90;;;;;;4174510;28;19950;-54
2022/02/04 15:43:20;;;;;;;;;;;9.20;99.90;;;;;;4175328;28;20457;-55
2022/02/04 15:47:58;;;;;;;;;;;9.20;99.90;;;;;;4175601;28;19955;-54
2022/02/04 15:54:23;;;;;;;;;;;9.20;99.90;;;;;;4176752;28;20015;-55
2022/02/04 15:59:10;;;;;;;;;;;9.10;99.90;;;;;;4170550;28;19936;-54
2022/02/04 16:01:30;;;;;;;;;;;9.10;99.90;;;;;;4174505;28;20019;-54
2022/02/04 16:05:43;;;;;;;;;;;9.00;99.90;;;;;;4165266;28;19957;-53
2022/02/04 16:07:45;;;;;;;;;;;9.00;99.90;;;;;;4169650;28;20351;-53
2022/02/04 16:09:54;;;;;;;;;;;9.00;99.90;;;;;;4174878;28;19925;-54
2022/02/04 16:14:25;;;;;;;;;;;9.00;99.90;;;;;;4174780;28;20019;-54
2022/02/04 16:16:32;;;;;;;;;;;9.00;99.90;;;;;;4173410;28;19925;-54
2022/02/04 16:18:43;;;;;;;;;;;9.00;99.90;;;;;;4175188;28;19983;-54
2022/02/04 16:29:38;;;;;;;;;;;9.00;99.90;;;;;;4171740;28;19936;-53
2022/02/04 16:31:40;;;;;;;;;;;9.00;99.90;;;;;;4162258;28;19964;-55
2022/02/04 16:33:44;;;;;;;;;;;9.00;99.90;;;;;;4164009;28;19935;-54
2022/02/04 16:35:46;;;;;;;;;;;9.00;99.90;;;;;;4170127;28;20368;-54
2022/02/04 16:38:00;;;;;;;;;;;9.00;99.90;;;;;;4176526;28;19963;-54
2022/02/04 16:40:05;;;;;;;;;;;8.90;99.90;;;;;;4176710;28;19967;-53
2022/02/04 16:42:14;;;;;;;;;;;8.90;99.90;;;;;;4172910;28;20043;-54
2022/02/04 16:44:16;;;;;;;;;;;8.90;99.90;;;;;;4176320;28;19956;-53
2022/02/04 16:46:18;;;;;;;;;;;8.90;99.90;;;;;;4162492;28;19959;-53
2022/02/04 16:48:20;;;;;;;;;;;8.90;99.90;;;;;;4165998;28;20032;-54
2022/02/04 16:50:22;;;;;;;;;;;8.90;99.90;;;;;;4163370;28;19929;-54
2022/02/04 16:52:24;;;;;;;;;;;8.90;99.90;;;;;;4174446;28;20036;-54
2022/02/04 16:54:27;;;;;;;;;;;8.80;99.90;;;;;;4174569;28;20027;-54
2022/02/04 16:56:30;;;;;;;;;;;8.80;99.90;;;;;;4174784;28;20008;-54
2022/02/04 16:58:32;;;;;;;;;;;8.80;99.90;;;;;;4164109;28;19972;-54
2022/02/04 17:00:35;;;;;;;;;;;8.70;99.90;;;;;;4172842;28;19959;-54
2022/02/04 17:02:37;;;;;;;;;;;8.70;99.90;;;;;;4175738;28;19925;-54
2022/02/04 17:04:39;;;;;;;;;;;8.70;99.90;;;;;;4175655;28;19971;-54
2022/02/04 17:06:45;;;;;;;;;;;8.70;99.90;;;;;;4175512;28;20004;-54
2022/02/04 17:08:52;;;;;;;;;;;8.70;99.90;;;;;;4178930;28;19955;-55
2022/02/04 17:11:09;;;;;;;;;;;8.60;99.90;;;;;;4169099;28;20364;-55
2022/02/04 17:13:11;;;;;;;;;;;8.60;99.90;;;;;;4175992;28;19924;-55
2022/02/04 17:15:14;;;;;;;;;;;8.60;99.90;;;;;;4179769;28;20551;-53
2022/02/04 17:17:17;;;;;;;;;;;8.60;99.90;;;;;;4176041;28;20016;-54
2022/02/04 17:19:24;;;;;;;;;;;8.60;99.90;;;;;;4171035;28;19954;-54
2022/02/04 17:21:29;;;;;;;;;;;8.60;99.90;;;;;;4168022;28;20019;-54
2022/02/04 17:23:43;;;;;;;;;;;8.60;99.90;;;;;;4175485;28;20012;-54
2022/02/04 17:25:46;;;;;;;;;;;8.60;99.90;;;;;;4176889;28;20443;-54
2022/02/04 17:27:48;;;;;;;;;;;8.60;99.90;;;;;;4174908;28;20577;-54
2022/02/04 17:29:49;;;;;;;;;;;8.50;99.90;;;;;;4174844;28;20427;-53
2022/02/04 17:31:51;;;;;;;;;;;8.50;99.90;;;;;;4177218;28;20396;-53
2022/02/04 17:33:53;;;;;;;;;;;8.50;99.90;;;;;;4163710;28;20024;-54
2022/02/04 17:35:58;;;;;;;;;;;8.60;99.90;;;;;;4169809;28;19979;-54
2022/02/04 17:38:01;;;;;;;;;;;8.60;99.90;;;;;;4165984;28;20280;-53
2022/02/04 17:40:05;;;;;;;;;;;8.60;99.90;;;;;;4178707;28;19929;-53
2022/02/04 17:42:08;;;;;;;;;;;8.50;99.90;;;;;;4176725;28;19935;-54
2022/02/04 17:44:10;;;;;;;;;;;8.50;99.90;;;;;;4177413;28;19924;-53
2022/02/04 17:46:12;;;;;;;;;;;8.50;99.90;;;;;;4165198;28;19925;-54
2022/02/04 17:48:27;;;;;;;;;;;8.50;99.90;;;;;;4173337;28;20016;-54
2022/02/04 17:53:04;;;;;;;;;;;8.40;99.90;;;;;;4112081;28;19934;-53
2022/02/04 17:55:14;;;;;;;;;;;8.40;99.90;;;;;;4110204;28;19934;-46
2022/02/04 17:57:33;;;;;;;;;;;9.10;99.90;;;;;;4126056;28;19940;-48
2022/02/04 18:02:13;;;;;;;;;;;9.40;99.90;;;;;;4126966;28;20492;-49
2022/02/04 18:06:57;;;;;;;;;;;8.90;99.90;;;;;;4121969;28;20005;-46
2022/02/04 18:09:17;;;;;;;;;;;8.90;99.90;;;;;;4126931;28;20053;-49
2022/02/04 18:11:22;;;;;;;;;;;8.90;99.90;;;;;;4117138;28;19930;-45
2022/02/04 18:13:29;;;;;;;;;;;8.80;99.90;;;;;;4128458;28;19972;-46
2022/02/04 18:15:31;;;;;;;;;;;8.90;99.90;;;;;;4118262;28;19933;-49
2022/02/04 18:17:33;;;;;;;;;;;8.80;99.90;;;;;;4130643;28;19976;-47
2022/02/04 18:19:35;;;;;;;;;;;8.70;99.90;;;;;;4126026;28;20389;-46
2022/02/04 18:21:37;;;;;;;;;;;8.70;99.90;;;;;;4117150;28;20024;-48
2022/02/04 18:23:39;;;;;;;;;;;8.70;99.90;;;;;;4120351;28;19973;-48
2022/02/04 18:25:41;;;;;;;;;;;8.80;99.90;;;;;;4129714;28;19936;-47
2022/02/04 18:27:46;;;;;;;;;;;9.30;99.90;;;;;;4133865;28;19940;-47
2022/02/04 18:29:53;;;;;;;;;;;9.40;99.90;;;;;;4144521;28;20392;-49
2022/02/04 18:31:55;;;;;;;;;;;9.40;99.90;;;;;;4175888;28;19998;-46
2022/02/04 18:33:58;;;;;;;;;;;9.20;99.90;;;;;;4176053;28;20452;-48
2022/02/04 18:36:01;;;;;;;;;;;9.00;99.90;;;;;;4176829;28;19933;-47
2022/02/04 18:38:21;;;;;;;;;;;8.90;99.90;;;;;;4178001;28;20403;-47
2022/02/04 18:44:35;;;;;;;;;;;8.50;99.90;;;;;;4176160;28;20542;-48
2022/02/04 18:48:49;;;;;;;;;;;9.00;99.90;;;;;;4177537;28;19929;-48
2022/02/04 18:51:47;;;;;;;;;;;9.10;99.90;;;;;;4176089;28;20139;-48